createdAt,value
2022-11-25T00:01:41.181Z,18.20
2022-11-25T00:04:09.624Z,19.53
2022-11-25T00:06:39.352Z,15.97
2022-11-25T00:09:11.381Z,18.57
2022-11-25T00:11:41.670Z,17.80
2022-11-25T00:14:14.782Z,19.40
2022-11-25T00:16:48.175Z,21.40
2022-11-25T00:19:17.565Z,20.73
2022-11-25T00:21:47.410Z,20.07
2022-11-25T00:24:17.530Z,18.07
2022-11-25T00:26:46.029Z,17.43
2022-11-25T00:29:15.296Z,18.47
2022-11-25T00:31:43.833Z,19.10
2022-11-25T00:34:15.407Z,16.70
2022-11-25T00:36:44.072Z,16.13
2022-11-25T00:39:15.926Z,16.43
2022-11-25T00:42:02.620Z,16.83
2022-11-25T00:44:37.828Z,16.47
2022-11-25T00:47:10.388Z,16.87
2022-11-25T00:49:40.476Z,16.23
2022-11-25T00:52:09.850Z,19.27
2022-11-25T00:54:39.764Z,16.57
2022-11-25T00:57:08.204Z,14.40
2022-11-25T00:59:36.710Z,20.40
2022-11-25T01:02:05.325Z,18.87
2022-11-25T01:04:34.539Z,16.07
2022-11-25T01:07:03.392Z,20.33
2022-11-25T01:09:32.644Z,17.80
2022-11-25T01:12:02.689Z,15.83
2022-11-25T01:14:32.971Z,20.20
2022-11-25T01:17:02.102Z,16.63
2022-11-25T01:19:30.686Z,15.90
2022-11-25T01:22:01.461Z,21.90
2022-11-25T01:24:29.977Z,20.60
2022-11-25T01:26:58.397Z,20.87
2022-11-25T01:29:28.227Z,20.13
2022-11-25T01:31:57.531Z,20.23
2022-11-25T01:34:28.548Z,20.47
2022-11-25T01:36:58.849Z,21.10
2022-11-25T01:39:32.511Z,18.57
2022-11-25T01:42:02.132Z,19.33
2022-11-25T01:44:34.044Z,17.90
2022-11-25T01:47:10.633Z,16.40
2022-11-25T01:49:43.564Z,16.47
2022-11-25T01:52:18.270Z,17.00
2022-11-25T01:54:53.569Z,14.20
2022-11-25T01:57:28.209Z,17.97
2022-11-25T02:00:01.917Z,14.80
2022-11-25T02:02:33.426Z,14.47
2022-11-25T02:05:05.190Z,17.00
2022-11-25T02:07:38.157Z,15.57
2022-11-25T02:10:13.900Z,15.60
2022-11-25T02:12:47.276Z,14.23
2022-11-25T02:15:18.508Z,16.67
2022-11-25T02:17:47.292Z,13.03
2022-11-25T02:20:18.097Z,15.90
2022-11-25T02:22:58.952Z,13.53
2022-11-25T02:25:32.100Z,15.63
2022-11-25T02:28:04.750Z,13.07
2022-11-25T02:30:34.204Z,13.67
2022-11-25T02:33:03.304Z,14.97
2022-11-25T02:35:35.404Z,15.10
2022-11-25T02:38:11.135Z,13.13
2022-11-25T02:40:48.677Z,14.17
2022-11-25T02:43:18.026Z,14.87
2022-11-25T02:45:58.482Z,16.17
2022-11-25T02:48:52.861Z,13.63
2022-11-25T02:51:22.073Z,13.93
2022-11-25T02:53:51.365Z,14.23
2022-11-25T02:56:24.786Z,14.63
2022-11-25T02:58:54.644Z,11.70
2022-11-25T03:01:23.913Z,10.93
2022-11-25T03:03:52.507Z,12.80
2022-11-25T03:06:20.970Z,12.47
2022-11-25T03:08:52.438Z,11.63
2022-11-25T03:11:43.411Z,12.73
2022-11-25T03:14:12.476Z,11.23
2022-11-25T03:16:41.163Z,14.13
2022-11-25T03:19:10.064Z,12.30
2022-11-25T03:21:38.555Z,11.50
2022-11-25T03:24:08.176Z,15.50
2022-11-25T03:26:38.018Z,14.53
2022-11-25T03:29:06.452Z,13.47
2022-11-25T03:31:36.679Z,13.70
2022-11-25T03:34:05.360Z,14.17
2022-11-25T03:36:34.010Z,10.97
2022-11-25T03:39:02.666Z,12.53
2022-11-25T03:41:31.154Z,13.00
2022-11-25T03:44:01.062Z,10.63
2022-11-25T03:46:29.618Z,11.83
2022-11-25T03:48:58.847Z,11.47
2022-11-25T03:51:27.429Z,14.13
2022-11-25T03:53:55.962Z,14.37
2022-11-25T03:56:26.111Z,12.17
2022-11-25T03:58:54.943Z,12.37
2022-11-25T04:01:26.025Z,12.70
2022-11-25T04:03:54.701Z,9.93
2022-11-25T04:06:24.029Z,11.30
2022-11-25T04:08:55.077Z,11.20
2022-11-25T04:11:43.697Z,11.27
2022-11-25T04:14:12.291Z,9.50
2022-11-25T04:16:42.322Z,10.77
2022-11-25T04:19:11.139Z,12.27
2022-11-25T04:21:39.708Z,13.23
2022-11-25T04:24:09.596Z,9.30
2022-11-25T04:26:38.064Z,12.53
2022-11-25T04:29:06.709Z,10.77
2022-11-25T04:31:35.645Z,9.87
2022-11-25T04:34:06.226Z,11.83
2022-11-25T04:36:35.904Z,11.60
2022-11-25T04:39:04.999Z,9.07
2022-11-25T04:41:34.568Z,9.57
2022-11-25T04:44:03.198Z,12.80
2022-11-25T04:46:38.659Z,11.13
2022-11-25T04:49:08.676Z,9.53
2022-11-25T04:51:37.168Z,12.87
2022-11-25T04:54:09.664Z,10.83
2022-11-25T04:56:40.987Z,9.60
2022-11-25T04:59:27.795Z,9.50
2022-11-25T05:01:56.332Z,9.77
2022-11-25T05:04:36.796Z,9.30
2022-11-25T05:07:05.774Z,10.37
2022-11-25T05:09:35.085Z,11.47
2022-11-25T05:12:31.447Z,11.93
2022-11-25T05:15:01.202Z,12.93
2022-11-25T05:17:33.103Z,12.73
2022-11-25T05:20:04.788Z,13.77
2022-11-25T05:22:36.624Z,9.03
2022-11-25T05:25:07.663Z,9.57
2022-11-25T05:27:41.568Z,9.63
2022-11-25T05:30:12.604Z,10.07
2022-11-25T05:32:41.605Z,10.03
2022-11-25T05:35:13.734Z,11.33
2022-11-25T05:37:42.283Z,11.10
2022-11-25T05:40:13.046Z,9.50
2022-11-25T05:43:01.474Z,11.33
2022-11-25T05:45:34.582Z,9.80
2022-11-25T05:48:02.994Z,9.47
2022-11-25T05:50:32.926Z,10.63
2022-11-25T05:53:34.025Z,9.50
2022-11-25T05:56:06.820Z,9.40
2022-11-25T05:58:55.067Z,8.43
2022-11-25T06:01:27.470Z,10.23
2022-11-25T06:03:56.858Z,10.60
2022-11-25T06:06:26.695Z,9.90
2022-11-25T06:08:56.068Z,10.40
2022-11-25T06:11:26.483Z,15.57
2022-11-25T06:13:57.423Z,15.17
2022-11-25T06:16:27.016Z,14.90
2022-11-25T06:19:06.808Z,12.10
2022-11-25T06:21:40.254Z,10.03
2022-11-25T06:24:09.437Z,13.03
2022-11-25T06:26:42.208Z,12.13
2022-11-25T06:29:10.890Z,14.17
2022-11-25T06:31:41.079Z,14.47
2022-11-25T06:34:32.163Z,17.77
2022-11-25T06:37:03.538Z,20.97
2022-11-25T06:39:31.934Z,18.13
2022-11-25T06:42:00.328Z,16.33
2022-11-25T06:44:28.862Z,16.77
2022-11-25T06:46:57.354Z,17.90
2022-11-25T06:49:26.149Z,16.83
2022-11-25T06:51:54.912Z,50.13
2022-11-25T06:54:25.063Z,40.60
2022-11-25T06:56:53.849Z,47.17
2022-11-25T06:59:22.654Z,55.30
2022-11-25T07:01:51.454Z,52.97
2022-11-25T07:04:19.987Z,45.63
2022-11-25T07:06:50.377Z,30.87
2022-11-25T07:09:19.695Z,33.90
2022-11-25T07:11:50.229Z,29.27
2022-11-25T07:14:19.309Z,28.93
2022-11-25T07:16:47.960Z,23.27
2022-11-25T07:19:19.606Z,21.87
2022-11-25T07:21:48.576Z,23.67
2022-11-25T07:24:18.691Z,18.73
2022-11-25T07:26:48.861Z,15.87
2022-11-25T07:32:10.582Z,17.30
2022-11-25T07:34:39.594Z,19.83
2022-11-25T07:37:08.111Z,18.17
2022-11-25T07:39:37.112Z,16.10
2022-11-25T07:42:07.205Z,15.20
2022-11-25T07:44:35.824Z,13.20
2022-11-25T07:47:26.996Z,12.83
2022-11-25T07:49:55.403Z,12.20
2022-11-25T07:52:23.811Z,14.20
2022-11-25T07:54:52.211Z,16.27
2022-11-25T07:57:22.034Z,14.43
2022-11-25T07:59:50.439Z,15.90
2022-11-25T08:02:18.817Z,14.93
2022-11-25T08:04:47.178Z,12.00
2022-11-25T08:07:15.696Z,12.10
2022-11-25T08:09:44.279Z,10.30
2022-11-25T08:12:12.801Z,11.70
2022-11-25T08:14:42.706Z,11.43
2022-11-25T08:17:12.194Z,11.97
2022-11-25T08:19:41.491Z,11.87
2022-11-25T08:22:09.904Z,11.93
2022-11-25T08:24:38.480Z,11.80
2022-11-25T08:27:07.286Z,12.30
2022-11-25T08:29:35.977Z,11.87
2022-11-25T08:32:11.819Z,12.37
2022-11-25T08:34:40.624Z,11.63
2022-11-25T08:37:11.520Z,13.07
2022-11-25T08:39:52.279Z,10.60
2022-11-25T08:42:21.769Z,10.53
2022-11-25T08:44:55.514Z,12.03
2022-11-25T08:47:26.131Z,14.93
2022-11-25T08:49:55.701Z,11.00
2022-11-25T08:52:24.800Z,13.10
2022-11-25T08:54:53.259Z,11.87
2022-11-25T08:57:21.813Z,14.83
2022-11-25T08:59:50.337Z,9.87
2022-11-25T09:02:19.731Z,14.97
2022-11-25T09:04:49.746Z,11.93
2022-11-25T09:07:18.351Z,11.13
2022-11-25T09:09:46.990Z,10.63
2022-11-25T09:12:15.485Z,8.90
2022-11-25T09:14:44.120Z,9.57
2022-11-25T09:17:15.858Z,10.97
2022-11-25T09:19:44.434Z,8.33
2022-11-25T09:22:14.460Z,7.07
2022-11-25T09:24:43.774Z,5.00
2022-11-25T09:27:12.325Z,5.90
2022-11-25T09:29:41.014Z,5.87
2022-11-25T09:32:09.732Z,6.50
2022-11-25T09:34:38.745Z,5.30
2022-11-25T09:37:07.597Z,4.87
2022-11-25T09:39:37.926Z,2.90
2022-11-25T09:42:56.908Z,6.97
2022-11-25T09:45:50.974Z,5.87
2022-11-25T09:48:49.675Z,7.60
2022-11-25T09:51:24.388Z,5.13
2022-11-25T09:53:56.200Z,6.43
2022-11-25T09:56:36.725Z,4.20
2022-11-25T09:59:13.486Z,5.07
2022-11-25T10:01:49.639Z,5.50
2022-11-25T10:04:27.201Z,5.93
2022-11-25T10:07:01.156Z,6.03
2022-11-25T10:09:33.736Z,5.50
2022-11-25T10:12:11.130Z,5.37
2022-11-25T10:14:46.375Z,4.97
2022-11-25T10:17:25.060Z,4.43
2022-11-25T10:19:59.986Z,6.37
2022-11-25T10:22:33.606Z,5.40
2022-11-25T10:25:11.013Z,5.90
2022-11-25T10:27:47.361Z,5.13
2022-11-25T10:30:21.301Z,5.17
2022-11-25T10:33:00.799Z,7.13
2022-11-25T10:35:36.439Z,6.70
2022-11-25T10:38:18.585Z,6.07
2022-11-25T10:40:51.512Z,5.77
2022-11-25T10:43:21.499Z,5.27
2022-11-25T10:46:00.092Z,8.37
2022-11-25T10:48:50.363Z,8.07
2022-11-25T10:51:37.458Z,13.47
2022-11-25T10:54:18.100Z,6.97
2022-11-25T10:57:06.415Z,7.97
2022-11-25T10:59:39.752Z,6.17
2022-11-25T11:02:20.384Z,6.50
2022-11-25T11:04:58.462Z,19.37
2022-11-25T11:07:29.918Z,17.70
2022-11-25T11:10:20.725Z,14.47
2022-11-25T11:12:58.957Z,14.90
2022-11-25T11:15:31.119Z,10.97
2022-11-25T11:18:02.114Z,10.17
2022-11-25T11:20:32.260Z,11.13
2022-11-25T11:23:09.356Z,9.23
2022-11-25T11:25:39.735Z,9.87
2022-11-25T11:28:28.164Z,11.93
2022-11-25T11:31:04.342Z,13.20
2022-11-25T11:33:39.029Z,10.53
2022-11-25T11:36:51.286Z,10.73
2022-11-25T11:39:49.369Z,10.33
2022-11-25T11:42:27.329Z,10.57
2022-11-25T11:45:07.148Z,14.77
2022-11-25T11:47:48.191Z,12.67
2022-11-25T11:50:28.723Z,9.70
2022-11-25T11:53:04.103Z,8.03
2022-11-25T11:56:26.856Z,8.27
2022-11-25T11:59:00.774Z,10.57
2022-11-25T12:01:46.541Z,8.97
2022-11-25T12:04:25.947Z,8.90
2022-11-25T12:07:04.450Z,9.57
2022-11-25T12:09:38.534Z,9.27
2022-11-25T12:12:12.713Z,9.87
2022-11-25T12:14:44.872Z,10.33
2022-11-25T12:17:20.548Z,11.30
2022-11-25T12:19:58.735Z,8.67
2022-11-25T12:22:31.529Z,9.67
2022-11-25T12:25:08.809Z,12.50
2022-11-25T12:27:42.375Z,15.50
2022-11-25T12:30:16.120Z,8.37
2022-11-25T12:33:00.837Z,13.57
2022-11-25T12:35:50.916Z,12.80
2022-11-25T12:38:32.405Z,10.13
2022-11-25T12:41:10.750Z,8.97
2022-11-25T12:43:47.745Z,6.80
2022-11-25T12:46:27.141Z,7.77
2022-11-25T12:48:58.254Z,8.83
2022-11-25T12:51:49.130Z,9.90
2022-11-25T12:54:42.331Z,9.37
2022-11-25T12:57:41.942Z,12.20
2022-11-25T13:03:39.140Z,11.87
2022-11-25T13:06:45.297Z,7.37
2022-11-25T13:09:30.695Z,6.67
2022-11-25T13:12:17.578Z,7.00
2022-11-25T13:15:27.035Z,7.83
2022-11-25T13:18:01.551Z,9.63
2022-11-25T13:20:46.209Z,5.43
2022-11-25T13:23:50.726Z,12.80
2022-11-25T13:26:49.590Z,9.17
2022-11-25T13:30:01.435Z,11.17
2022-11-25T13:32:40.360Z,8.33
2022-11-25T13:35:54.766Z,10.30
2022-11-25T13:39:06.790Z,11.20
2022-11-25T13:41:45.578Z,9.97
2022-11-25T13:44:28.040Z,11.83
2022-11-25T13:46:58.717Z,10.87
2022-11-25T13:49:44.993Z,8.77
2022-11-25T13:52:42.682Z,10.83
2022-11-25T13:55:34.080Z,7.80
2022-11-25T13:58:08.367Z,9.07
2022-11-25T14:01:06.739Z,10.27
2022-11-25T14:04:00.267Z,10.13
2022-11-25T14:06:52.527Z,6.77
2022-11-25T14:09:36.517Z,11.07
2022-11-25T14:12:28.529Z,8.97
2022-11-25T14:15:30.656Z,8.47
2022-11-25T14:22:08.950Z,11.60
2022-11-25T14:24:40.084Z,10.77
2022-11-25T14:27:19.299Z,7.17
2022-11-25T14:29:53.920Z,6.47
2022-11-25T14:32:29.822Z,7.13
2022-11-25T14:35:04.777Z,4.80
2022-11-25T14:37:40.761Z,5.97
2022-11-25T14:40:16.947Z,9.83
2022-11-25T14:42:51.365Z,11.13
2022-11-25T14:45:26.710Z,14.53
2022-11-25T14:47:55.135Z,43.53
2022-11-25T14:50:34.773Z,33.83
2022-11-25T14:53:08.219Z,47.33
2022-11-25T14:55:38.164Z,36.57
2022-11-25T14:58:08.196Z,25.10
2022-11-25T15:00:36.669Z,22.37
2022-11-25T15:03:06.719Z,18.23
2022-11-25T15:05:38.124Z,26.67
2022-11-25T15:08:14.124Z,25.60
2022-11-25T15:10:51.052Z,19.07
2022-11-25T15:13:34.279Z,18.73
2022-11-25T15:16:09.464Z,14.07
2022-11-25T15:18:39.368Z,12.53
2022-11-25T15:21:08.218Z,16.50
2022-11-25T15:23:39.514Z,18.23
2022-11-25T15:26:19.531Z,19.97
2022-11-25T15:28:55.432Z,16.80
2022-11-25T15:31:29.177Z,13.60
2022-11-25T15:34:00.811Z,11.67
2022-11-25T15:36:29.796Z,12.13
2022-11-25T15:39:16.364Z,10.30
2022-11-25T15:41:46.729Z,12.03
2022-11-25T15:44:24.507Z,11.23
2022-11-25T15:47:00.343Z,9.07
2022-11-25T15:49:30.086Z,8.27
2022-11-25T15:52:04.335Z,6.13
2022-11-25T15:54:39.707Z,9.00
2022-11-25T15:57:19.236Z,8.30
2022-11-25T15:59:52.655Z,9.87
2022-11-25T16:02:53.857Z,9.57
2022-11-25T16:05:49.344Z,8.33
2022-11-25T16:08:42.555Z,10.23
2022-11-25T16:11:19.361Z,9.50
2022-11-25T16:13:49.375Z,9.20
2022-11-25T16:16:24.108Z,17.83
2022-11-25T16:19:16.977Z,17.47
2022-11-25T16:21:58.177Z,32.80
2022-11-25T16:24:47.442Z,28.17
2022-11-25T16:27:25.719Z,29.33
2022-11-25T16:29:58.122Z,25.17
2022-11-25T16:32:30.099Z,23.90
2022-11-25T16:35:12.277Z,21.53
2022-11-25T16:37:45.423Z,20.00
2022-11-25T16:40:18.995Z,18.37
2022-11-25T16:42:50.547Z,18.17
2022-11-25T16:45:23.123Z,24.37
2022-11-25T16:47:52.969Z,23.43
2022-11-25T16:50:22.481Z,19.80
2022-11-25T16:52:51.020Z,23.10
2022-11-25T16:55:19.496Z,21.37
2022-11-25T16:57:48.301Z,19.27
2022-11-25T17:00:48.892Z,21.03
2022-11-25T17:03:19.587Z,18.37
2022-11-25T17:05:48.522Z,21.90
2022-11-25T17:08:17.358Z,30.33
2022-11-25T17:10:46.888Z,25.53
2022-11-25T17:13:21.823Z,21.87
2022-11-25T17:15:51.151Z,22.63
2022-11-25T17:18:22.713Z,19.97
2022-11-25T17:20:51.231Z,17.97
2022-11-25T17:23:22.426Z,21.43
2022-11-25T17:25:51.804Z,21.77
2022-11-25T17:28:22.415Z,19.33
2022-11-25T17:30:50.890Z,22.23
2022-11-25T17:33:22.061Z,22.93
2022-11-25T17:35:50.535Z,18.23
2022-11-25T17:38:21.996Z,17.60
2022-11-25T17:40:50.891Z,16.87
2022-11-25T17:43:21.759Z,12.90
2022-11-25T17:45:50.377Z,15.03
2022-11-25T17:48:20.927Z,39.07
2022-11-25T17:50:49.813Z,19.60
2022-11-25T17:53:18.253Z,24.80
2022-11-25T17:55:46.707Z,28.03
2022-11-25T17:58:15.944Z,46.90
2022-11-25T18:00:45.254Z,39.80
2022-11-25T18:03:15.413Z,26.03
2022-11-25T18:05:46.216Z,32.27
2022-11-25T18:08:14.853Z,29.50
2022-11-25T18:10:47.005Z,23.23
2022-11-25T18:13:17.128Z,23.93
2022-11-25T18:15:45.872Z,24.83
2022-11-25T18:18:21.567Z,24.53
2022-11-25T18:20:51.760Z,22.73
2022-11-25T18:23:20.638Z,27.53
2022-11-25T18:25:49.778Z,28.53
2022-11-25T18:28:23.449Z,25.00
2022-11-25T18:30:54.391Z,24.50
2022-11-25T18:33:23.035Z,23.10
2022-11-25T18:35:53.321Z,24.80
2022-11-25T18:38:21.884Z,19.03
2022-11-25T18:40:53.890Z,22.33
2022-11-25T18:43:28.596Z,17.43
2022-11-25T18:45:57.403Z,17.50
2022-11-25T18:48:27.969Z,19.47
2022-11-25T18:50:58.244Z,20.97
2022-11-25T18:53:33.765Z,16.63
2022-11-25T18:56:02.420Z,15.23
2022-11-25T18:58:32.701Z,16.73
2022-11-25T19:01:06.092Z,19.00
2022-11-25T19:03:35.004Z,15.60
2022-11-25T19:06:05.855Z,16.23
2022-11-25T19:08:34.717Z,16.67
2022-11-25T19:11:03.681Z,13.23
2022-11-25T19:13:35.541Z,24.00
2022-11-25T19:16:13.461Z,17.90
2022-11-25T19:18:44.347Z,15.00
2022-11-25T19:21:17.219Z,20.57
2022-11-25T19:23:46.688Z,17.63
2022-11-25T19:26:18.825Z,15.93
2022-11-25T19:28:52.514Z,23.83
2022-11-25T19:31:22.039Z,18.70
2022-11-25T19:33:52.471Z,25.17
2022-11-25T19:36:26.595Z,11.27
2022-11-25T19:38:55.487Z,12.43
2022-11-25T19:41:23.998Z,6.00
2022-11-25T19:43:53.069Z,9.93
2022-11-25T19:46:33.010Z,6.70
2022-11-25T19:49:06.806Z,14.43
2022-11-25T19:51:37.169Z,11.17
2022-11-25T19:54:07.344Z,12.67
2022-11-25T19:56:37.674Z,10.70
2022-11-25T19:59:07.190Z,13.30
2022-11-25T20:01:40.581Z,16.00
2022-11-25T20:04:17.004Z,20.57
2022-11-25T20:06:48.078Z,22.00
2022-11-25T20:09:17.609Z,15.80
2022-11-25T20:11:47.490Z,17.57
2022-11-25T20:14:16.007Z,13.13
2022-11-25T20:16:45.042Z,16.77
2022-11-25T20:19:18.993Z,17.43
2022-11-25T20:21:51.914Z,10.97
2022-11-25T20:24:22.328Z,12.60
2022-11-25T20:26:51.711Z,13.00
2022-11-25T20:29:27.532Z,10.27
2022-11-25T20:31:59.726Z,12.13
2022-11-25T20:34:28.442Z,9.63
2022-11-25T20:36:59.885Z,9.80
2022-11-25T20:39:28.809Z,11.37
2022-11-25T20:41:57.412Z,11.17
2022-11-25T20:44:28.566Z,12.00
2022-11-25T20:46:57.801Z,11.33
2022-11-25T20:49:29.319Z,15.13
2022-11-25T20:52:01.164Z,12.93
2022-11-25T20:54:32.911Z,11.37
2022-11-25T20:57:01.934Z,16.10
2022-11-25T20:59:31.112Z,12.50
2022-11-25T21:02:00.408Z,14.47
2022-11-25T21:04:28.951Z,17.57
2022-11-25T21:06:58.718Z,16.07
2022-11-25T21:09:33.045Z,15.97
2022-11-25T21:12:02.425Z,15.17
2022-11-25T21:14:31.982Z,14.07
2022-11-25T21:17:00.579Z,18.67
2022-11-25T21:19:29.446Z,14.63
2022-11-25T21:22:02.178Z,14.10
2022-11-25T21:24:33.522Z,13.93
2022-11-25T21:27:09.998Z,11.80
2022-11-25T21:29:42.727Z,12.13
2022-11-25T21:32:22.999Z,14.77
2022-11-25T21:34:51.849Z,13.93
2022-11-25T21:37:35.042Z,13.87
2022-11-25T21:40:06.016Z,11.63
2022-11-25T21:42:35.522Z,12.43
2022-11-25T21:45:05.139Z,8.50
2022-11-25T21:47:33.747Z,8.57
2022-11-25T21:50:02.838Z,11.60
2022-11-25T21:52:33.033Z,10.87
2022-11-25T21:55:02.071Z,10.07
2022-11-25T21:57:31.251Z,7.30
2022-11-25T22:00:00.007Z,7.67
2022-11-25T22:02:29.123Z,7.37
2022-11-25T22:04:59.279Z,7.77
2022-11-25T22:07:30.781Z,6.73
2022-11-25T22:10:01.265Z,7.10
2022-11-25T22:12:34.389Z,7.07
2022-11-25T22:15:12.881Z,7.60
2022-11-25T22:17:41.371Z,10.97
2022-11-25T22:20:29.434Z,7.30
2022-11-25T22:22:58.146Z,6.73
2022-11-25T22:25:31.366Z,6.77
2022-11-25T22:27:59.929Z,7.53
2022-11-25T22:30:28.323Z,6.00
2022-11-25T22:33:02.147Z,9.40
2022-11-25T22:35:30.956Z,9.50
2022-11-25T22:37:59.403Z,11.37
2022-11-25T22:40:29.307Z,9.60
2022-11-25T22:42:58.132Z,12.80
2022-11-25T22:45:32.534Z,14.00
2022-11-25T22:48:04.974Z,15.17
2022-11-25T22:50:35.400Z,12.27
2022-11-25T22:53:03.969Z,16.50
2022-11-25T22:55:35.014Z,13.63
2022-11-25T22:58:04.610Z,15.43
2022-11-25T23:00:36.388Z,17.53
2022-11-25T23:03:08.543Z,14.63
2022-11-25T23:05:40.960Z,12.23
2022-11-25T23:08:14.712Z,11.10
2022-11-25T23:10:45.851Z,12.50
2022-11-25T23:13:17.072Z,13.17
2022-11-25T23:15:51.013Z,12.30
2022-11-25T23:18:26.827Z,11.37
2022-11-25T23:20:55.607Z,9.87
2022-11-25T23:23:28.093Z,10.63
2022-11-25T23:25:58.949Z,7.87
2022-11-25T23:28:27.738Z,9.10
2022-11-25T23:30:58.312Z,8.47
2022-11-25T23:33:32.294Z,7.63
2022-11-25T23:36:06.126Z,9.10
2022-11-25T23:38:43.718Z,9.13
2022-11-25T23:41:16.893Z,8.67
2022-11-25T23:43:45.664Z,8.47
2022-11-25T23:46:16.984Z,7.40
2022-11-25T23:48:53.443Z,6.27
2022-11-25T23:51:23.639Z,6.53
2022-11-25T23:53:52.941Z,9.23
2022-11-25T23:56:23.463Z,7.50
2022-11-25T23:58:51.898Z,8.40
